Time;durP1;ratioP1;P1;durP2;ratioP2;P2;SDS_P1;SDS_P2;PMS_P1;PMS_P2;Temp;Humidity;BMP_temperature;BMP_pressure;BME280_temperature;BME280_humidity;BME280_pressure;Samples;Min_cycle;Max_cycle;Signal;HPM_P1;HPM_P2
2023/05/28 00:04:30;;;;;;;21.73;7.35;;;11.80;99.90;;;;;;5045494;28;20138;-75
2023/05/28 00:07:17;;;;;;;21.35;6.88;;;11.90;99.90;;;;;;5035603;28;20041;-78
2023/05/28 00:09:51;;;;;;;17.65;7.15;;;11.80;99.90;;;;;;5026374;28;20135;-77
2023/05/28 00:12:47;;;;;;;19.88;7.72;;;11.80;99.90;;;;;;5046923;28;20135;-77
2023/05/28 00:16:05;;;;;;;16.98;7.45;;;11.80;99.90;;;;;;5046086;28;20518;-75
2023/05/28 00:19:07;;;;;;;16.98;7.63;;;11.80;99.90;;;;;;5046358;28;20060;-78
2023/05/28 00:21:34;;;;;;;21.90;7.88;;;11.80;99.90;;;;;;5019092;28;20433;-75
2023/05/28 00:24:47;;;;;;;23.30;8.20;;;11.00;99.90;;;;;;5031654;28;20037;-76
2023/05/28 00:30:25;;;;;;;22.35;7.35;;;11.70;99.90;;;;;;5016567;28;20081;-75
2023/05/28 00:33:50;;;;;;;20.52;8.20;;;11.70;99.90;;;;;;5004698;28;20057;-76
2023/05/28 00:36:59;;;;;;;15.73;6.50;;;11.60;99.90;;;;;;5004938;28;20069;-76
2023/05/28 00:39:33;;;;;;;19.70;7.17;;;11.60;99.90;;;;;;5017301;28;20045;-75
2023/05/28 00:42:27;;;;;;;17.80;6.82;;;11.60;99.90;;;;;;5029077;28;20060;-75
2023/05/28 00:45:11;;;;;;;15.82;6.70;;;11.60;99.90;;;;;;4951706;28;20068;-76
2023/05/28 00:47:48;;;;;;;16.75;7.22;;;11.60;99.90;;;;;;5014774;28;20065;-75
2023/05/28 00:50:54;;;;;;;21.60;7.68;;;11.60;99.90;;;;;;4984088;28;20300;-76
2023/05/28 00:53:39;;;;;;;14.57;7.35;;;11.60;99.90;;;;;;5052443;28;20060;-75
2023/05/28 00:57:00;;;;;;;14.40;6.63;;;11.60;99.90;;;;;;5054415;28;20047;-76
2023/05/28 00:59:55;;;;;;;15.07;6.45;;;11.60;99.90;;;;;;5047374;28;20028;-78
2023/05/28 01:03:18;;;;;;;14.32;6.70;;;11.60;99.90;;;;;;5011853;28;20056;-77
2023/05/28 01:06:21;;;;;;;18.75;7.25;;;11.70;99.90;;;;;;5074609;28;20623;-79
2023/05/28 01:09:02;;;;;;;16.85;7.10;;;11.60;99.90;;;;;;5028344;28;20061;-76
2023/05/28 01:12:21;;;;;;;16.35;7.13;;;11.60;99.90;;;;;;5044755;28;20049;-77
2023/05/28 01:15:10;;;;;;;17.92;6.97;;;11.60;99.90;;;;;;5023589;28;20056;-77
2023/05/28 01:17:55;;;;;;;19.25;6.90;;;11.60;99.90;;;;;;5042819;28;20460;-76
2023/05/28 01:20:28;;;;;;;19.52;7.13;;;11.50;99.90;;;;;;5041829;28;20084;-78
2023/05/28 01:23:37;;;;;;;15.93;6.70;;;11.50;99.90;;;;;;5044365;28;20052;-79
2023/05/28 01:26:56;;;;;;;16.88;6.93;;;11.40;99.90;;;;;;4997201;28;20038;-76
2023/05/28 01:29:44;;;;;;;16.55;7.15;;;11.40;99.90;;;;;;5004953;28;20283;-79
2023/05/28 01:32:46;;;;;;;20.45;7.55;;;11.40;99.90;;;;;;4964902;28;20076;-78
2023/05/28 01:35:40;;;;;;;18.00;7.07;;;11.40;99.90;;;;;;5007169;28;20049;-76
2023/05/28 01:38:44;;;;;;;19.48;7.00;;;11.30;99.90;;;;;;5001755;28;20049;-77
2023/05/28 01:41:35;;;;;;;20.75;7.15;;;11.30;99.90;;;;;;5006004;28;20061;-79
2023/05/28 01:44:18;;;;;;;17.27;7.03;;;11.30;99.90;;;;;;5005546;28;20126;-75
2023/05/28 01:47:16;;;;;;;15.52;6.57;;;11.30;99.90;;;;;;4967412;28;20061;-75
2023/05/28 01:50:08;;;;;;;17.98;7.38;;;11.30;99.90;;;;;;4989503;28;20088;-77
2023/05/28 01:52:39;;;;;;;15.98;8.02;;;11.20;99.90;;;;;;5005622;28;20120;-75
2023/05/28 01:55:27;;;;;;;19.65;8.55;;;11.20;99.90;;;;;;4968886;28;20045;-75
2023/05/28 01:58:15;;;;;;;18.58;8.23;;;11.20;99.90;;;;;;5032999;28;20191;-78
2023/05/28 02:01:39;;;;;;;20.35;8.65;;;11.20;99.90;;;;;;5042115;28;20192;-75
2023/05/28 02:04:18;;;;;;;17.95;8.48;;;11.10;99.90;;;;;;5027443;28;20071;-77
2023/05/28 02:07:40;;;;;;;18.25;8.68;;;11.10;99.90;;;;;;5055929;28;20052;-78
2023/05/28 02:10:42;;;;;;;18.35;8.80;;;11.10;99.90;;;;;;5045728;28;20087;-76
2023/05/28 02:13:44;;;;;;;19.23;9.07;;;11.00;99.90;;;;;;5062604;28;20083;-75
2023/05/28 02:16:47;;;;;;;15.23;8.70;;;11.00;99.90;;;;;;5060875;28;20129;-75
2023/05/28 02:23:18;;;;;;;24.20;9.48;;;10.90;99.90;;;;;;5063216;28;20496;-78
2023/05/28 02:26:20;;;;;;;18.48;9.95;;;11.00;99.90;;;;;;5055141;28;20040;-76
2023/05/28 02:32:25;;;;;;;23.55;10.50;;;10.80;99.90;;;;;;5054921;28;20166;-77
2023/05/28 02:35:29;;;;;;;20.88;10.73;;;10.80;99.90;;;;;;5047014;28;20080;-76
2023/05/28 02:41:26;;;;;;;20.55;10.90;;;10.80;99.90;;;;;;5036541;28;20051;-76
2023/05/28 02:44:15;;;;;;;23.27;9.93;;;9.80;99.90;;;;;;5041504;28;20064;-76
2023/05/28 02:47:26;;;;;;;24.38;10.40;;;10.80;99.90;;;;;;5054900;28;20932;-76
2023/05/28 02:50:21;;;;;;;21.30;9.80;;;10.80;99.90;;;;;;5046340;28;20079;-76
2023/05/28 02:53:11;;;;;;;21.50;10.00;;;10.80;99.90;;;;;;5049631;28;20072;-79
2023/05/28 02:58:39;;;;;;;21.50;9.27;;;10.80;99.90;;;;;;5001009;28;20044;-77
2023/05/28 03:01:53;;;;;;;21.30;9.73;;;10.80;99.90;;;;;;5036780;28;20060;-77
2023/05/28 03:07:52;;;;;;;19.92;10.18;;;10.70;99.90;;;;;;5074518;28;20056;-77
2023/05/28 03:10:58;;;;;;;19.42;9.93;;;10.70;99.90;;;;;;5042651;28;20080;-77
2023/05/28 03:13:48;;;;;;;23.02;10.07;;;10.70;99.90;;;;;;5040466;28;20605;-75
2023/05/28 03:22:20;;;;;;;22.77;10.13;;;10.60;99.90;;;;;;5026574;28;20045;-77
2023/05/28 03:25:27;;;;;;;19.83;10.43;;;10.60;99.90;;;;;;5043339;28;20125;-75
2023/05/28 03:28:29;;;;;;;21.88;10.77;;;10.60;99.90;;;;;;5046115;28;20048;-78
2023/05/28 03:31:06;;;;;;;22.15;10.40;;;11.00;99.90;;;;;;5047049;28;20048;-75
2023/05/28 03:34:20;;;;;;;21.50;11.73;;;10.50;99.90;;;;;;5047089;28;20052;-75
2023/05/28 03:37:19;;;;;;;23.90;12.73;;;10.50;99.90;;;;;;5040404;28;20071;-77
2023/05/28 03:40:14;;;;;;;28.52;12.38;;;10.50;99.90;;;;;;5044021;28;20049;-77
2023/05/28 03:43:18;;;;;;;25.63;12.43;;;10.50;99.90;;;;;;5025384;28;20075;-76
2023/05/28 03:45:43;;;;;;;29.73;11.85;;;10.50;99.90;;;;;;5039114;28;20039;-75
2023/05/28 03:48:48;;;;;;;27.60;11.90;;;10.50;99.90;;;;;;5046543;28;20059;-76
2023/05/28 03:51:56;;;;;;;21.67;10.57;;;10.50;99.90;;;;;;5042531;28;20051;-75
2023/05/28 03:54:22;;;;;;;24.80;11.82;;;10.50;99.90;;;;;;5045568;28;20106;-77
2023/05/28 03:57:53;;;;;;;23.35;11.05;;;10.50;99.90;;;;;;5045562;28;20082;-76
2023/05/28 04:00:28;;;;;;;23.33;11.25;;;10.50;99.90;;;;;;5031321;28;20049;-77
2023/05/28 04:03:20;;;;;;;25.27;10.98;;;10.50;99.90;;;;;;5045064;28;20041;-75
2023/05/28 04:06:17;;;;;;;23.80;10.55;;;10.50;99.90;;;;;;5042224;28;20080;-76
2023/05/28 04:09:22;;;;;;;18.95;10.43;;;10.60;99.90;;;;;;5045543;28;20046;-76
2023/05/28 04:12:20;;;;;;;26.17;11.88;;;10.60;99.90;;;;;;5033131;28;20096;-76
2023/05/28 04:15:15;;;;;;;25.33;11.38;;;10.60;99.90;;;;;;5020357;28;20048;-76
2023/05/28 04:18:02;;;;;;;20.17;9.73;;;10.60;99.90;;;;;;5047046;28;20935;-75
2023/05/28 04:20:55;;;;;;;15.77;8.43;;;10.70;99.90;;;;;;5046108;28;20059;-77
2023/05/28 04:24:04;;;;;;;18.20;8.85;;;10.70;99.90;;;;;;5027606;28;20162;-77
2023/05/28 04:26:44;;;;;;;18.85;8.90;;;10.00;99.90;;;;;;5044757;28;20139;-76
2023/05/28 04:30:00;;;;;;;15.95;8.35;;;10.80;99.90;;;;;;4988309;28;20490;-75
2023/05/28 04:33:02;;;;;;;20.23;8.80;;;10.80;99.90;;;;;;5031195;28;20060;-76
2023/05/28 04:36:04;;;;;;;22.85;9.25;;;10.80;99.90;;;;;;5038615;28;20052;-76
2023/05/28 04:38:42;;;;;;;17.70;8.25;;;10.90;99.90;;;;;;5044513;28;20052;-77
2023/05/28 04:41:55;;;;;;;17.58;7.38;;;10.90;99.90;;;;;;5040284;28;20415;-76
2023/05/28 04:44:32;;;;;;;16.42;7.95;;;11.00;99.90;;;;;;5026023;28;20829;-75
2023/05/28 04:46:59;;;;;;;18.23;7.78;;;11.00;99.90;;;;;;5022972;28;20131;-82
2023/05/28 04:49:40;;;;;;;;;;;11.10;99.90;;;;;;5108402;27;1501855;-77
2023/05/28 04:52:12;;;;;;;21.00;8.35;;;11.20;99.90;;;;;;5109577;27;20018;-75
2023/05/28 04:54:39;;;;;;;16.83;9.10;;;11.30;99.90;;;;;;5111186;27;20404;-75
2023/05/28 04:57:05;;;;;;;19.70;8.40;;;11.30;99.90;;;;;;5095268;27;21064;-75
2023/05/28 04:59:35;;;;;;;18.00;8.80;;;11.40;99.90;;;;;;5126842;27;20042;-77
2023/05/28 05:02:01;;;;;;;14.43;7.88;;;11.50;99.90;;;;;;5106647;27;20136;-74
2023/05/28 05:04:26;;;;;;;21.70;8.73;;;11.50;99.90;;;;;;5091808;27;20040;-76
2023/05/28 05:06:52;;;;;;;21.13;8.27;;;11.60;99.90;;;;;;5084765;27;20404;-76
2023/05/28 05:09:19;;;;;;;18.77;7.28;;;11.60;99.90;;;;;;5130577;27;20145;-76
2023/05/28 05:11:46;;;;;;;15.55;7.30;;;11.70;99.90;;;;;;5130567;27;20050;-75
2023/05/28 05:14:12;;;;;;;20.45;7.78;;;11.70;99.90;;;;;;5128419;27;20062;-75
2023/05/28 05:16:38;;;;;;;16.75;6.90;;;11.80;99.90;;;;;;5098333;27;20042;-75
2023/05/28 05:19:03;;;;;;;16.02;6.47;;;11.90;99.90;;;;;;5116567;27;22305;-76
2023/05/28 05:21:29;;;;;;;16.20;7.22;;;11.90;99.90;;;;;;5115047;27;22067;-75
2023/05/28 05:23:55;;;;;;;17.85;7.65;;;11.60;99.90;;;;;;5131639;27;20043;-75
2023/05/28 05:26:21;;;;;;;20.02;8.00;;;12.00;99.90;;;;;;5134004;27;20042;-77
2023/05/28 05:28:46;;;;;;;17.60;8.18;;;12.10;99.90;;;;;;5107081;27;20037;-75
2023/05/28 05:31:13;;;;;;;20.27;8.48;;;12.20;99.90;;;;;;5118722;27;20738;-75
2023/05/28 05:33:42;;;;;;;17.63;7.50;;;12.30;99.90;;;;;;5107153;27;20110;-75
2023/05/28 05:36:09;;;;;;;18.23;7.25;;;12.30;99.90;;;;;;5114382;27;20100;-74
2023/05/28 05:38:38;;;;;;;14.40;7.28;;;12.50;99.90;;;;;;5117773;27;20051;-74
2023/05/28 05:41:04;;;;;;;12.48;6.47;;;12.50;99.90;;;;;;5118362;27;20049;-76
2023/05/28 05:43:30;;;;;;;16.15;7.40;;;12.60;99.90;;;;;;5082662;27;20654;-74
2023/05/28 05:45:56;;;;;;;17.98;6.85;;;12.70;99.90;;;;;;5121504;27;20047;-74
2023/05/28 05:48:26;;;;;;;14.65;6.60;;;12.80;99.90;;;;;;5101861;27;20055;-76
2023/05/28 05:50:57;;;;;;;16.33;5.32;;;12.90;99.90;;;;;;5102328;27;20043;-78
2023/05/28 05:53:24;;;;;;;11.82;4.93;;;13.00;99.90;;;;;;5101731;27;20411;-76
2023/05/28 05:55:51;;;;;;;16.42;5.43;;;13.10;99.90;;;;;;5113574;27;20697;-77
2023/05/28 05:58:18;;;;;;;15.02;5.32;;;13.20;99.90;;;;;;5132576;27;20042;-76
2023/05/28 06:00:50;;;;;;;14.23;4.90;;;13.30;99.90;;;;;;5123385;27;20047;-76
2023/05/28 06:03:21;;;;;;;12.15;4.50;;;13.40;99.90;;;;;;5086699;27;20523;-77
2023/05/28 06:05:50;;;;;;;13.48;4.35;;;13.60;99.90;;;;;;5120237;27;20117;-76
2023/05/28 06:08:16;;;;;;;12.35;4.63;;;13.70;99.90;;;;;;5121218;27;20043;-76
2023/05/28 06:10:41;;;;;;;15.45;4.88;;;13.80;99.90;;;;;;5093097;27;20900;-76
2023/05/28 06:13:07;;;;;;;15.10;5.28;;;13.90;99.90;;;;;;5087059;27;20038;-77
2023/05/28 06:15:33;;;;;;;14.73;4.72;;;14.10;99.90;;;;;;5128580;27;20038;-76
2023/05/28 06:17:59;;;;;;;15.20;4.30;;;14.20;99.90;;;;;;5112823;27;20077;-76
2023/05/28 06:20:27;;;;;;;11.98;4.40;;;14.30;99.90;;;;;;5146437;27;20050;-74
2023/05/28 06:22:55;;;;;;;10.02;4.85;;;14.40;99.90;;;;;;5103445;27;20050;-75
2023/05/28 06:25:22;;;;;;;9.93;4.22;;;14.50;99.90;;;;;;5107131;27;20130;-76
2023/05/28 06:27:49;;;;;;;15.68;4.88;;;14.70;99.90;;;;;;5092955;27;20043;-75
2023/05/28 06:30:14;;;;;;;12.82;4.63;;;14.80;99.90;;;;;;5072751;27;20047;-75
2023/05/28 06:32:41;;;;;;;12.50;4.00;;;14.90;99.90;;;;;;5104591;27;20272;-76
2023/05/28 06:35:09;;;;;;;10.93;4.28;;;14.90;99.90;;;;;;5096238;27;20055;-76
2023/05/28 06:37:36;;;;;;;10.00;4.15;;;15.10;99.90;;;;;;5091613;27;20132;-75
2023/05/28 06:40:05;;;;;;;10.20;3.75;;;15.20;99.90;;;;;;5094508;27;20038;-74
2023/05/28 06:42:31;;;;;;;9.00;4.00;;;15.40;99.90;;;;;;5105324;27;20125;-74
2023/05/28 06:44:59;;;;;;;11.20;3.53;;;15.50;99.90;;;;;;5104867;27;20050;-74
2023/05/28 06:47:24;;;;;;;8.50;3.05;;;15.60;99.90;;;;;;5091885;27;20086;-74
2023/05/28 06:49:51;;;;;;;10.70;3.38;;;15.70;99.90;;;;;;5090462;27;20830;-76
2023/05/28 06:52:18;;;;;;;9.88;3.88;;;15.80;99.90;;;;;;5085041;27;20045;-76
2023/05/28 06:54:45;;;;;;;6.75;2.90;;;15.90;99.90;;;;;;5102386;27;20043;-75
2023/05/28 06:57:10;;;;;;;7.25;3.00;;;16.00;99.90;;;;;;5084810;27;20061;-77
2023/05/28 06:59:36;;;;;;;9.35;2.72;;;16.20;99.90;;;;;;5106945;27;20034;-74
2023/05/28 07:02:02;;;;;;;7.63;3.00;;;16.30;99.90;;;;;;5109626;27;20107;-75
2023/05/28 07:04:28;;;;;;;11.55;4.20;;;16.50;99.90;;;;;;5085848;27;20073;-74
2023/05/28 07:06:54;;;;;;;10.18;3.25;;;16.30;99.90;;;;;;5072036;27;20049;-75
2023/05/28 07:09:21;;;;;;;8.45;3.15;;;16.80;99.90;;;;;;5072361;27;20078;-76
2023/05/28 07:11:46;;;;;;;6.72;3.08;;;17.00;99.90;;;;;;5102736;27;20103;-74
2023/05/28 07:14:12;;;;;;;8.60;3.08;;;17.20;99.90;;;;;;5100276;27;20042;-75
2023/05/28 07:16:39;;;;;;;5.57;2.60;;;17.30;99.90;;;;;;5079299;27;20038;-74
2023/05/28 07:19:06;;;;;;;8.88;2.70;;;17.40;99.90;;;;;;5104486;27;20055;-73
2023/05/28 07:21:32;;;;;;;7.03;2.88;;;17.50;99.90;;;;;;5108289;27;20051;-74
2023/05/28 07:23:58;;;;;;;4.85;2.50;;;17.70;99.90;;;;;;5081168;27;20070;-74
2023/05/28 07:26:26;;;;;;;6.45;2.78;;;17.90;99.90;;;;;;5110486;27;20065;-73
2023/05/28 07:28:52;;;;;;;8.00;2.40;;;18.00;99.90;;;;;;5116287;27;20338;-76
2023/05/28 07:31:24;;;;;;;8.20;2.50;;;18.00;99.90;;;;;;5089970;27;20039;-74
2023/05/28 07:33:57;;;;;;;6.93;2.90;;;18.30;99.90;;;;;;5096196;27;20050;-75
2023/05/28 07:36:23;;;;;;;4.63;2.60;;;18.50;99.90;;;;;;5085580;27;20243;-75
2023/05/28 07:38:48;;;;;;;6.45;2.65;;;18.70;99.90;;;;;;5085424;27;20038;-74
2023/05/28 07:41:14;;;;;;;6.03;2.83;;;18.80;99.90;;;;;;5119374;27;20042;-74
2023/05/28 07:43:40;;;;;;;8.38;2.90;;;18.90;99.90;;;;;;5054199;28;20510;-76
2023/05/28 07:46:06;;;;;;;6.43;2.53;;;19.10;99.90;;;;;;5060880;28;20047;-77
2023/05/28 07:48:32;;;;;;;5.00;2.25;;;19.20;99.90;;;;;;5041029;28;20333;-74
2023/05/28 07:50:58;;;;;;;6.28;2.58;;;19.40;99.90;;;;;;5073313;28;20096;-74
2023/05/28 07:53:24;;;;;;;7.35;2.83;;;19.90;99.90;;;;;;5040875;28;20132;-74
2023/05/28 07:55:53;;;;;;;5.88;2.70;;;19.80;99.90;;;;;;5062206;28;20124;-74
2023/05/28 07:58:19;;;;;;;7.82;2.53;;;20.00;99.90;;;;;;5070186;28;20075;-75
2023/05/28 08:00:44;;;;;;;7.13;3.08;;;20.10;99.90;;;;;;5041435;28;20489;-75
2023/05/28 08:03:13;;;;;;;5.32;2.72;;;20.20;99.90;;;;;;5059700;28;20522;-74
2023/05/28 08:05:39;;;;;;;7.63;3.30;;;20.40;99.90;;;;;;5023377;28;22270;-74
2023/05/28 08:08:07;;;;;;;6.75;3.13;;;20.50;99.90;;;;;;5076669;28;20058;-76
2023/05/28 08:10:34;;;;;;;5.78;2.95;;;20.70;99.50;;;;;;5054327;28;20047;-74
2023/05/28 08:13:01;;;;;;;9.63;3.75;;;20.70;99.40;;;;;;5062175;28;20060;-75
2023/05/28 08:15:26;;;;;;;6.97;3.60;;;20.90;99.20;;;;;;5103160;27;20102;-74
2023/05/28 08:17:52;;;;;;;8.60;3.80;;;21.10;98.90;;;;;;5066875;27;20062;-77
2023/05/28 08:20:19;;;;;;;4.95;3.08;;;21.30;98.70;;;;;;5107284;27;20051;-77
2023/05/28 08:22:45;;;;;;;6.57;3.20;;;21.50;98.30;;;;;;5106022;27;20046;-74
2023/05/28 08:25:16;;;;;;;6.75;3.40;;;21.70;97.80;;;;;;5114375;27;20122;-75
2023/05/28 08:27:42;;;;;;;7.22;3.47;;;21.90;97.60;;;;;;5088125;27;20141;-77
2023/05/28 08:30:09;;;;;;;9.40;4.18;;;22.10;97.40;;;;;;5090776;27;20748;-76
2023/05/28 08:32:34;;;;;;;11.63;3.88;;;22.30;97.00;;;;;;5094626;27;20523;-74
2023/05/28 08:35:00;;;;;;;8.05;3.78;;;22.50;96.50;;;;;;5077181;27;20042;-74
2023/05/28 08:37:26;;;;;;;6.03;3.75;;;22.70;96.10;;;;;;5116834;27;20038;-75
2023/05/28 08:39:52;;;;;;;6.47;3.60;;;22.80;95.30;;;;;;5096589;27;20053;-76
2023/05/28 08:42:17;;;;;;;8.65;3.67;;;23.00;94.40;;;;;;5118275;27;20058;-75
2023/05/28 08:44:44;;;;;;;7.60;3.38;;;23.10;94.00;;;;;;5093776;27;20046;-75
2023/05/28 08:47:15;;;;;;;7.80;3.95;;;23.30;93.70;;;;;;5082432;27;20062;-77
2023/05/28 08:49:45;;;;;;;7.65;3.60;;;22.90;93.10;;;;;;5076866;27;20043;-75
2023/05/28 08:52:18;;;;;;;7.25;3.70;;;23.60;93.00;;;;;;5128624;27;20130;-74
2023/05/28 08:54:45;;;;;;;7.47;4.07;;;23.80;92.90;;;;;;5109997;27;20300;-77
2023/05/28 08:57:12;;;;;;;8.35;3.70;;;24.00;91.80;;;;;;5079647;27;20050;-75
2023/05/28 08:59:38;;;;;;;5.93;3.80;;;24.10;91.10;;;;;;5094027;27;20034;-77
2023/05/28 09:02:07;;;;;;;10.10;4.30;;;24.20;90.40;;;;;;5091508;27;20055;-76
2023/05/28 09:04:33;;;;;;;5.85;3.88;;;24.20;88.00;;;;;;5111913;27;20066;-76
2023/05/28 09:06:59;;;;;;;6.63;3.90;;;24.30;87.40;;;;;;5112548;27;20477;-76
2023/05/28 09:09:26;;;;;;;10.65;4.35;;;24.40;86.80;;;;;;5103881;27;20507;-76
2023/05/28 09:11:58;;;;;;;8.13;4.20;;;24.70;86.20;;;;;;5091575;27;20443;-75
2023/05/28 09:14:25;;;;;;;8.70;4.95;;;24.90;84.90;;;;;;5085138;27;20168;-75
2023/05/28 09:16:50;;;;;;;6.53;4.00;;;24.90;83.20;;;;;;5091550;27;20039;-75
2023/05/28 09:19:17;;;;;;;8.43;4.10;;;24.70;82.50;;;;;;5092869;27;20813;-74
2023/05/28 09:21:53;;;;;;;5.97;4.07;;;25.20;81.80;;;;;;5126571;27;20177;-78
2023/05/28 09:24:19;;;;;;;8.40;4.70;;;25.40;78.60;;;;;;5108401;27;20050;-75
2023/05/28 09:26:45;;;;;;;7.90;4.63;;;25.40;79.80;;;;;;5110936;27;20594;-74
2023/05/28 09:29:14;;;;;;;8.65;4.10;;;25.60;78.40;;;;;;5106205;27;20039;-75
2023/05/28 09:31:40;;;;;;;8.32;4.43;;;25.60;77.00;;;;;;5091993;27;20042;-75
2023/05/28 09:34:05;;;;;;;6.20;3.95;;;25.90;76.40;;;;;;5094010;27;20047;-72
2023/05/28 09:36:32;;;;;;;9.40;4.30;;;26.00;75.50;;;;;;5080809;27;20050;-74
2023/05/28 09:38:59;;;;;;;7.10;4.10;;;26.10;74.40;;;;;;5114801;27;20046;-75
2023/05/28 09:41:33;;;;;;;7.90;4.15;;;26.10;73.60;;;;;;5080672;27;20047;-73
2023/05/28 09:44:02;;;;;;;6.00;3.92;;;26.00;72.90;;;;;;5096504;27;20050;-76
2023/05/28 09:46:32;;;;;;;5.88;3.95;;;25.70;72.20;;;;;;5095364;27;20054;-74
2023/05/28 09:48:59;;;;;;;4.68;3.10;;;25.90;70.70;;;;;;5101112;27;20046;-74
2023/05/28 09:51:29;;;;;;;5.60;3.33;;;25.90;70.20;;;;;;5085019;27;21618;-76
2023/05/28 09:54:08;;;;;;;5.43;3.20;;;26.10;69.60;;;;;;5109957;27;20069;-75
2023/05/28 09:56:37;;;;;;;6.80;3.60;;;26.20;69.80;;;;;;5106835;27;20054;-74
2023/05/28 09:59:08;;;;;;;5.85;3.47;;;26.40;70.10;;;;;;5117405;27;20047;-75
2023/05/28 10:01:40;;;;;;;5.38;2.72;;;26.30;69.00;;;;;;5098502;27;20058;-77
2023/05/28 10:04:11;;;;;;;6.22;2.90;;;26.50;69.30;;;;;;5116059;27;20039;-75
2023/05/28 10:06:43;;;;;;;6.45;3.00;;;26.60;69.70;;;;;;5100178;27;20233;-78
2023/05/28 10:09:12;;;;;;;6.28;2.83;;;26.70;69.60;;;;;;5099292;27;20047;-78
2023/05/28 10:11:55;;;;;;;7.05;2.40;;;26.90;69.10;;;;;;5097566;27;20050;-75
2023/05/28 10:14:22;;;;;;;5.65;2.95;;;26.90;67.50;;;;;;5117023;27;20122;-78
2023/05/28 10:16:50;;;;;;;5.68;2.53;;;27.00;68.70;;;;;;5095769;27;20202;-77
2023/05/28 10:19:16;;;;;;;6.75;2.60;;;27.10;68.50;;;;;;5083506;27;20031;-75
2023/05/28 10:21:42;;;;;;;6.43;2.75;;;27.20;68.10;;;;;;5116118;27;20988;-78
2023/05/28 10:24:09;;;;;;;7.05;2.65;;;27.20;67.80;;;;;;5094398;27;20043;-74
2023/05/28 10:26:35;;;;;;;5.35;2.40;;;27.30;67.30;;;;;;5120537;27;20130;-75
2023/05/28 10:29:07;;;;;;;5.47;2.70;;;27.40;66.80;;;;;;5116232;27;21089;-76
2023/05/28 10:31:34;;;;;;;6.18;2.50;;;27.40;67.20;;;;;;5119035;27;20695;-77
2023/05/28 10:34:01;;;;;;;6.32;2.65;;;27.40;67.50;;;;;;5112840;27;20039;-77
2023/05/28 10:36:27;;;;;;;7.20;3.13;;;27.50;67.30;;;;;;5118458;27;20042;-75
2023/05/28 10:38:52;;;;;;;9.05;2.95;;;27.50;67.10;;;;;;5117355;27;20081;-77
2023/05/28 10:41:22;;;;;;;7.25;2.85;;;27.70;67.50;;;;;;5116119;27;20074;-75
2023/05/28 10:43:52;;;;;;;6.78;3.10;;;27.70;67.50;;;;;;5099951;27;20515;-76
2023/05/28 10:46:35;;;;;;;6.78;2.97;;;27.80;67.50;;;;;;5104005;27;20042;-75
2023/05/28 10:49:12;;;;;;;6.68;3.25;;;27.80;67.20;;;;;;5111317;27;20279;-74
2023/05/28 10:52:02;;;;;;;7.18;3.40;;;27.70;67.20;;;;;;5094105;27;20037;-75
2023/05/28 10:54:33;;;;;;;5.88;2.83;;;27.70;67.00;;;;;;5112294;27;20042;-78
2023/05/28 10:57:19;;;;;;;7.60;3.17;;;27.90;67.80;;;;;;5097663;27;20041;-75
2023/05/28 10:59:48;;;;;;;4.78;2.90;;;27.90;66.30;;;;;;5114911;27;20136;-75
2023/05/28 11:02:20;;;;;;;5.63;2.83;;;27.80;67.10;;;;;;5111612;27;20074;-75
2023/05/28 11:04:50;;;;;;;5.40;2.63;;;27.80;66.70;;;;;;5088489;27;20042;-75
2023/05/28 11:07:18;;;;;;;5.03;2.60;;;27.80;66.80;;;;;;5113201;27;20050;-74
2023/05/28 11:09:49;;;;;;;5.15;2.97;;;27.80;66.10;;;;;;5091920;27;20039;-76
2023/05/28 11:12:15;;;;;;;6.78;2.67;;;27.80;65.70;;;;;;5074873;27;20039;-76
2023/05/28 11:14:43;;;;;;;5.25;2.65;;;27.80;65.70;;;;;;5095938;27;20675;-75
2023/05/28 11:17:12;;;;;;;5.93;2.30;;;27.70;64.90;;;;;;5107993;27;20039;-78
2023/05/28 11:19:45;;;;;;;5.85;2.55;;;27.80;65.10;;;;;;5091207;27;20599;-75
2023/05/28 11:22:14;;;;;;;4.65;2.25;;;27.80;64.60;;;;;;5115691;27;20042;-76
2023/05/28 11:25:04;;;;;;;5.75;2.47;;;27.90;65.10;;;;;;5101711;27;20049;-78
2023/05/28 11:27:31;;;;;;;4.55;2.38;;;28.00;63.80;;;;;;5117940;27;20046;-74
2023/05/28 11:29:59;;;;;;;6.38;2.63;;;28.00;65.40;;;;;;5117500;27;20054;-75
2023/05/28 11:32:28;;;;;;;8.63;2.83;;;28.00;65.40;;;;;;5118188;27;20116;-75
2023/05/28 11:35:01;;;;;;;6.03;2.20;;;27.90;65.10;;;;;;5083583;27;20046;-75
2023/05/28 11:37:33;;;;;;;6.28;2.60;;;27.90;65.40;;;;;;5098667;27;20072;-75
2023/05/28 11:40:00;;;;;;;6.60;2.22;;;27.80;64.70;;;;;;5117704;27;20106;-76
2023/05/28 11:42:28;;;;;;;7.35;2.50;;;27.80;64.50;;;;;;5081170;27;20548;-76
2023/05/28 11:44:54;;;;;;;5.57;2.17;;;27.70;64.40;;;;;;5093030;27;20047;-76
2023/05/28 11:47:21;;;;;;;6.10;2.47;;;27.80;64.90;;;;;;5077161;27;20400;-75
2023/05/28 11:49:48;;;;;;;5.35;2.40;;;27.80;64.90;;;;;;5094203;27;20482;-76
2023/05/28 11:52:16;;;;;;;5.85;2.53;;;27.70;64.80;;;;;;5114316;27;20500;-75
2023/05/28 11:54:45;;;;;;;6.95;2.20;;;27.70;65.30;;;;;;5115390;27;20039;-75
2023/05/28 11:57:17;;;;;;;6.95;2.47;;;27.70;65.50;;;;;;5115674;27;20123;-78
2023/05/28 12:02:51;;;;;;;7.30;2.80;;;27.80;67.40;;;;;;5135075;27;20089;-75
2023/05/28 12:05:18;;;;;;;8.38;3.20;;;28.00;67.90;;;;;;5109509;27;20050;-77
2023/05/28 12:07:52;;;;;;;8.10;3.10;;;28.00;67.80;;;;;;5126499;27;20107;-75
2023/05/28 12:10:22;;;;;;;6.25;2.85;;;28.00;68.10;;;;;;5110334;27;20074;-75
2023/05/28 12:12:55;;;;;;;7.30;3.15;;;28.00;68.10;;;;;;5127872;27;20045;-76
2023/05/28 12:15:28;;;;;;;6.68;2.47;;;27.90;67.60;;;;;;5129288;27;20038;-75
2023/05/28 12:17:57;;;;;;;7.10;2.58;;;28.00;67.90;;;;;;5109721;27;20054;-76
2023/05/28 12:20:23;;;;;;;7.45;2.72;;;28.10;68.00;;;;;;5110832;27;20058;-74
2023/05/28 12:23:13;;;;;;;8.45;2.83;;;27.90;68.20;;;;;;5128515;27;20078;-74
2023/05/28 12:25:51;;;;;;;7.43;2.92;;;27.90;68.70;;;;;;5128725;27;20051;-75
2023/05/28 12:28:21;;;;;;;4.63;2.55;;;27.90;68.70;;;;;;5145663;27;20511;-75
2023/05/28 12:30:54;;;;;;;6.95;2.50;;;27.80;68.10;;;;;;5128761;27;20050;-77
2023/05/28 12:33:28;;;;;;;10.27;2.58;;;27.80;68.50;;;;;;5111829;27;20055;-74
2023/05/28 12:35:56;;;;;;;6.32;2.63;;;27.80;68.60;;;;;;5095452;27;20049;-76
2023/05/28 12:38:27;;;;;;;8.75;2.92;;;27.70;68.40;;;;;;5112506;27;20116;-74
2023/05/28 12:40:53;;;;;;;5.15;2.08;;;27.70;68.30;;;;;;5126319;27;20092;-75
2023/05/28 12:43:20;;;;;;;7.70;2.60;;;27.70;68.20;;;;;;5128612;27;20070;-76
2023/05/28 12:45:46;;;;;;;6.72;2.38;;;27.80;68.20;;;;;;5100938;27;20122;-75
2023/05/28 12:48:13;;;;;;;5.78;2.38;;;27.80;68.40;;;;;;5127346;27;20536;-75
2023/05/28 12:50:38;;;;;;;6.32;2.40;;;27.80;68.30;;;;;;5126838;27;20497;-74
2023/05/28 12:53:04;;;;;;;6.22;2.22;;;27.90;68.30;;;;;;5110825;27;20140;-75
2023/05/28 12:55:31;;;;;;;5.10;2.15;;;28.00;68.10;;;;;;5094792;27;20050;-75
2023/05/28 12:58:05;;;;;;;;;;;28.00;68.20;;;;;;5147208;27;20134;-73
2023/05/28 13:00:31;;;;;;;;;;;28.00;68.40;;;;;;5126739;27;19959;-76
2023/05/28 13:02:57;;;;;;;5.88;2.17;;;27.90;66.60;;;;;;5127686;27;19923;-75
2023/05/28 13:05:23;;;;;;;5.63;2.45;;;27.90;68.40;;;;;;5111337;27;20043;-75
2023/05/28 13:07:55;;;;;;;7.90;2.47;;;27.80;68.80;;;;;;5096169;27;20140;-76
2023/05/28 13:10:21;;;;;;;7.35;2.60;;;27.90;68.80;;;;;;5113569;27;20050;-78
2023/05/28 13:12:47;;;;;;;7.47;2.45;;;27.80;68.70;;;;;;5146203;27;20152;-75
2023/05/28 13:15:13;;;;;;;8.27;2.60;;;27.80;69.20;;;;;;5098524;27;20126;-76
2023/05/28 13:17:39;;;;;;;7.32;2.30;;;27.80;69.50;;;;;;5097962;27;20161;-75
2023/05/28 13:20:10;;;;;;;7.28;2.65;;;27.70;69.10;;;;;;5116531;27;20058;-78
2023/05/28 13:22:42;;;;;;;4.38;2.25;;;27.70;69.00;;;;;;5113256;27;20053;-75
2023/05/28 13:25:09;;;;;;;7.60;2.97;;;27.80;68.70;;;;;;5107955;27;20047;-75
2023/05/28 13:27:36;;;;;;;4.72;2.38;;;27.90;68.00;;;;;;5113930;27;20078;-76
2023/05/28 13:30:02;;;;;;;5.53;2.20;;;27.90;67.20;;;;;;5114071;27;20061;-75
2023/05/28 13:32:29;;;;;;;7.82;2.70;;;27.80;67.50;;;;;;5095539;27;20147;-75
2023/05/28 13:34:55;;;;;;;9.88;2.65;;;27.60;67.30;;;;;;5115474;27;20081;-76
2023/05/28 13:37:21;;;;;;;7.45;2.72;;;27.50;67.40;;;;;;5114839;27;20035;-78
2023/05/28 13:39:48;;;;;;;6.47;2.58;;;27.40;67.40;;;;;;5098522;27;20053;-75
2023/05/28 13:42:19;;;;;;;7.72;2.65;;;27.30;68.10;;;;;;5098214;27;20050;-74
2023/05/28 13:44:48;;;;;;;6.63;2.88;;;27.20;68.30;;;;;;5132016;27;20493;-75
2023/05/28 13:47:15;;;;;;;7.50;2.60;;;27.00;68.50;;;;;;5115073;27;20051;-75
2023/05/28 13:49:41;;;;;;;7.80;2.60;;;26.90;69.00;;;;;;5131787;27;20047;-75
2023/05/28 13:52:07;;;;;;;6.00;2.33;;;27.00;69.30;;;;;;5097401;27;20062;-76
2023/05/28 13:54:36;;;;;;;5.85;2.38;;;27.00;69.60;;;;;;5114701;27;20057;-77
2023/05/28 13:57:02;;;;;;;7.28;2.58;;;27.00;70.00;;;;;;5115149;27;20054;-77
2023/05/28 13:59:27;;;;;;;5.88;2.40;;;26.90;69.50;;;;;;5115003;27;20125;-75